Time;durP1;ratioP1;P1;durP2;ratioP2;P2;SDS_P1;SDS_P2;PMS_P1;PMS_P2;Temp;Humidity;BMP_temperature;BMP_pressure;BME280_temperature;BME280_humidity;BME280_pressure;Samples;Min_cycle;Max_cycle;Signal;HPM_P1;HPM_P2
2023/08/08 00:00:49;;;;;;;2.42;1.00;;;;;;;;;;5026843;28;20044;-81
2023/08/08 00:03:16;;;;;;;1.35;0.80;;;;;;;;;;5029630;28;20191;-81
2023/08/08 00:05:43;;;;;;;1.63;0.80;;;;;;;;;;5027173;28;20126;-81
2023/08/08 00:08:10;;;;;;;1.45;0.70;;;;;;;;;;5012183;28;20077;-81
2023/08/08 00:10:37;;;;;;;1.77;0.90;;;;;;;;;;5019290;28;20049;-78
2023/08/08 00:13:03;;;;;;;1.92;0.65;;;;;;;;;;5019588;28;20054;-80
2023/08/08 00:15:30;;;;;;;3.28;1.70;;;;;;;;;;5019573;28;20509;-80
2023/08/08 00:17:57;;;;;;;1.65;0.80;;;;;;;;;;5019720;28;20096;-80
2023/08/08 00:20:24;;;;;;;1.88;1.10;;;;;;;;;;5020012;28;20045;-81
2023/08/08 00:22:52;;;;;;;2.28;1.10;;;;;;;;;;5018844;28;20464;-82
2023/08/08 00:25:18;;;;;;;2.03;0.85;;;;;;;;;;5020195;28;20061;-81
2023/08/08 00:27:45;;;;;;;2.17;1.00;;;;;;;;;;5021079;28;20049;-82
2023/08/08 00:30:13;;;;;;;2.10;0.88;;;;;;;;;;5020438;28;20069;-82
2023/08/08 00:32:39;;;;;;;2.22;1.10;;;;;;;;;;5026077;28;20062;-81
2023/08/08 00:35:06;;;;;;;2.10;0.95;;;;;;;;;;5028155;28;20060;-82
2023/08/08 00:37:33;;;;;;;1.67;0.98;;;;;;;;;;5017458;28;20054;-81
2023/08/08 00:40:01;;;;;;;2.10;0.80;;;;;;;;;;5016723;28;20052;-79
2023/08/08 00:42:28;;;;;;;4.60;1.83;;;;;;;;;;5017191;28;20046;-80
2023/08/08 00:44:54;;;;;;;2.70;1.00;;;;;;;;;;5017802;28;20138;-79
2023/08/08 00:47:21;;;;;;;2.03;1.00;;;;;;;;;;5017348;28;20045;-80
2023/08/08 00:49:48;;;;;;;2.50;1.10;;;;;;;;;;5021179;28;20109;-80
2023/08/08 00:52:15;;;;;;;2.33;1.13;;;;;;;;;;5021214;28;20050;-79
2023/08/08 00:54:42;;;;;;;2.70;1.10;;;;;;;;;;5021802;28;20475;-80
2023/08/08 00:57:10;;;;;;;2.13;1.17;;;;;;;;;;5021875;28;20046;-81
2023/08/08 00:59:36;;;;;;;1.52;0.90;;;;;;;;;;5022497;28;20050;-81
2023/08/08 01:02:03;;;;;;;2.47;1.15;;;;;;;;;;5022542;28;20057;-80
2023/08/08 01:04:29;;;;;;;1.70;0.93;;;;;;;;;;5023020;28;20045;-81
2023/08/08 01:07:07;;;;;;;2.08;0.90;;;;;;;;;;5024625;28;20046;-80
2023/08/08 01:09:38;;;;;;;1.63;1.10;;;;;;;;;;5023883;28;20050;-81
2023/08/08 01:12:07;;;;;;;1.63;1.00;;;;;;;;;;5025021;28;20068;-80
2023/08/08 01:14:36;;;;;;;1.90;0.80;;;;;;;;;;5027972;28;20098;-80
2023/08/08 01:17:05;;;;;;;1.83;0.80;;;;;;;;;;5033491;28;20060;-81
2023/08/08 01:19:34;;;;;;;2.60;1.13;;;;;;;;;;5033124;28;20411;-81
2023/08/08 01:22:05;;;;;;;2.20;1.20;;;;;;;;;;5032991;28;20072;-81
2023/08/08 01:24:36;;;;;;;2.00;0.80;;;;;;;;;;5032357;28;20101;-80
2023/08/08 01:27:04;;;;;;;2.92;0.93;;;;;;;;;;5029520;28;20049;-80
2023/08/08 01:29:30;;;;;;;1.60;0.77;;;;;;;;;;5023816;28;20284;-81
2023/08/08 01:31:57;;;;;;;2.50;1.20;;;;;;;;;;5022715;28;20074;-80
2023/08/08 01:34:24;;;;;;;1.88;1.13;;;;;;;;;;5021714;28;20053;-80
2023/08/08 01:36:56;;;;;;;2.35;1.05;;;;;;;;;;5022786;28;20054;-80
2023/08/08 01:39:27;;;;;;;2.17;0.80;;;;;;;;;;5024483;28;20052;-80
2023/08/08 01:41:56;;;;;;;2.17;0.90;;;;;;;;;;5031714;28;20054;-81
2023/08/08 01:44:24;;;;;;;2.00;1.00;;;;;;;;;;5018893;28;20046;-81
2023/08/08 01:46:51;;;;;;;2.70;0.90;;;;;;;;;;5017988;28;20060;-80
2023/08/08 01:49:18;;;;;;;1.67;0.90;;;;;;;;;;5017092;28;20133;-81
2023/08/08 01:51:45;;;;;;;1.90;0.90;;;;;;;;;;5016144;28;20493;-80
2023/08/08 01:54:11;;;;;;;2.17;1.10;;;;;;;;;;5016533;28;20133;-80
2023/08/08 01:56:38;;;;;;;1.98;0.95;;;;;;;;;;5017091;28;20050;-80
2023/08/08 01:59:06;;;;;;;2.25;1.00;;;;;;;;;;5016376;28;20528;-80
2023/08/08 02:01:32;;;;;;;2.83;1.10;;;;;;;;;;5016739;28;20509;-81
2023/08/08 02:03:59;;;;;;;2.10;1.00;;;;;;;;;;5017382;28;20056;-81
2023/08/08 02:06:25;;;;;;;3.13;1.27;;;;;;;;;;5015909;28;20041;-81
2023/08/08 02:08:52;;;;;;;2.00;0.90;;;;;;;;;;5016732;28;20046;-81
2023/08/08 02:11:19;;;;;;;1.80;0.80;;;;;;;;;;5017729;28;20057;-81
2023/08/08 02:13:45;;;;;;;2.08;0.90;;;;;;;;;;5025224;28;20041;-81
2023/08/08 02:16:13;;;;;;;1.83;0.93;;;;;;;;;;5016607;28;20053;-80
2023/08/08 02:18:41;;;;;;;3.10;1.20;;;;;;;;;;5016865;28;20077;-81
2023/08/08 02:21:07;;;;;;;2.70;1.20;;;;;;;;;;5017070;28;20092;-81
2023/08/08 02:23:34;;;;;;;2.97;1.30;;;;;;;;;;5016601;28;20053;-81
2023/08/08 02:26:00;;;;;;;2.50;1.02;;;;;;;;;;5016141;28;20056;-81
2023/08/08 02:28:27;;;;;;;2.58;1.20;;;;;;;;;;5015642;28;20049;-80
2023/08/08 02:30:54;;;;;;;2.75;1.05;;;;;;;;;;5016082;28;20054;-80
2023/08/08 02:33:22;;;;;;;2.45;1.10;;;;;;;;;;5016213;28;20137;-80
2023/08/08 02:35:48;;;;;;;2.13;0.90;;;;;;;;;;5016210;28;20132;-80
2023/08/08 02:38:15;;;;;;;2.25;1.08;;;;;;;;;;5017799;28;20499;-80
2023/08/08 02:40:42;;;;;;;1.35;0.80;;;;;;;;;;5018483;28;20137;-80
2023/08/08 02:43:09;;;;;;;2.67;1.50;;;;;;;;;;5021408;28;20133;-80
2023/08/08 02:45:35;;;;;;;1.77;1.02;;;;;;;;;;5024061;28;20046;-80
2023/08/08 02:48:02;;;;;;;1.95;1.00;;;;;;;;;;5022962;28;20129;-80
2023/08/08 02:50:30;;;;;;;2.08;0.90;;;;;;;;;;5024470;28;20054;-80
2023/08/08 02:52:57;;;;;;;2.83;1.10;;;;;;;;;;5024629;28;20054;-80
2023/08/08 02:55:24;;;;;;;2.35;1.05;;;;;;;;;;5027116;28;20081;-80
2023/08/08 02:57:50;;;;;;;1.40;0.80;;;;;;;;;;5026045;28;20050;-81
2023/08/08 03:00:17;;;;;;;3.30;1.00;;;;;;;;;;5026254;28;20084;-81
2023/08/08 03:02:44;;;;;;;2.88;1.00;;;;;;;;;;5026034;28;20058;-81
2023/08/08 03:05:10;;;;;;;3.35;1.10;;;;;;;;;;5024963;28;20140;-81
2023/08/08 03:07:38;;;;;;;2.13;0.90;;;;;;;;;;5023412;28;20050;-81
2023/08/08 03:10:06;;;;;;;2.70;1.40;;;;;;;;;;5025470;28;20073;-81
2023/08/08 03:12:32;;;;;;;1.73;1.00;;;;;;;;;;5026270;28;20548;-81
2023/08/08 03:14:59;;;;;;;1.75;0.90;;;;;;;;;;5026760;28;20409;-81
2023/08/08 03:17:26;;;;;;;1.85;1.10;;;;;;;;;;5024725;28;20080;-80
2023/08/08 03:19:52;;;;;;;2.25;1.02;;;;;;;;;;5024334;28;20520;-81
2023/08/08 03:22:19;;;;;;;1.55;0.90;;;;;;;;;;5023676;28;20105;-80
2023/08/08 03:24:47;;;;;;;2.17;1.00;;;;;;;;;;5023364;28;20101;-80
2023/08/08 03:27:13;;;;;;;2.67;1.00;;;;;;;;;;5023377;28;20078;-80
2023/08/08 03:29:40;;;;;;;3.80;1.00;;;;;;;;;;5021145;28;20490;-79
2023/08/08 03:32:07;;;;;;;0.98;0.80;;;;;;;;;;5021739;28;20057;-80
2023/08/08 03:34:34;;;;;;;2.05;0.98;;;;;;;;;;5022316;28;20104;-80
2023/08/08 03:37:01;;;;;;;2.05;0.90;;;;;;;;;;5021622;28;20133;-80
2023/08/08 03:39:27;;;;;;;2.05;1.10;;;;;;;;;;5022717;28;20285;-79
2023/08/08 03:41:55;;;;;;;2.30;1.00;;;;;;;;;;5022995;28;20045;-79
2023/08/08 03:44:22;;;;;;;2.58;1.15;;;;;;;;;;5023431;28;20045;-80
2023/08/08 03:46:49;;;;;;;1.85;1.17;;;;;;;;;;5022590;28;20065;-80
2023/08/08 03:49:16;;;;;;;2.72;1.55;;;;;;;;;;5024595;28;20089;-81
2023/08/08 03:51:42;;;;;;;1.92;1.00;;;;;;;;;;5022007;28;20057;-79
2023/08/08 03:54:09;;;;;;;2.25;1.02;;;;;;;;;;5020327;28;20049;-80
2023/08/08 03:56:35;;;;;;;2.13;0.98;;;;;;;;;;5021925;28;20050;-80
2023/08/08 03:59:03;;;;;;;2.88;1.00;;;;;;;;;;5022097;28;20085;-80
2023/08/08 04:01:30;;;;;;;1.58;0.75;;;;;;;;;;5023326;28;20520;-80
2023/08/08 04:03:56;;;;;;;1.77;0.95;;;;;;;;;;5027964;28;20038;-81
2023/08/08 04:06:23;;;;;;;2.88;1.20;;;;;;;;;;5029362;28;20069;-81
2023/08/08 04:08:49;;;;;;;2.15;1.05;;;;;;;;;;5031887;28;20037;-80
2023/08/08 04:11:16;;;;;;;2.45;1.23;;;;;;;;;;5031130;28;20455;-80
2023/08/08 04:13:43;;;;;;;2.92;1.25;;;;;;;;;;5031717;28;20137;-81
2023/08/08 04:16:11;;;;;;;2.17;1.13;;;;;;;;;;5024500;28;20099;-82
2023/08/08 04:18:37;;;;;;;2.67;1.45;;;;;;;;;;5020057;28;20057;-82
2023/08/08 04:21:04;;;;;;;2.42;1.20;;;;;;;;;;5018265;28;20046;-81
2023/08/08 04:23:30;;;;;;;2.03;1.00;;;;;;;;;;5019924;28;20161;-81
2023/08/08 04:25:57;;;;;;;2.38;1.08;;;;;;;;;;5022701;28;20050;-82
2023/08/08 04:28:24;;;;;;;2.63;1.20;;;;;;;;;;5027825;28;20050;-81
2023/08/08 04:30:50;;;;;;;3.30;1.10;;;;;;;;;;5029295;28;20042;-81
2023/08/08 04:33:18;;;;;;;3.97;1.33;;;;;;;;;;5027191;28;20124;-81
2023/08/08 04:35:45;;;;;;;3.63;1.55;;;;;;;;;;5065230;22;20122;-75
2023/08/08 04:38:11;;;;;;;2.60;1.25;;;;;;;;;;5035690;28;20084;-77
2023/08/08 04:40:38;;;;;;;3.00;1.40;;;;;;;;;;5036503;28;20049;-78
2023/08/08 04:43:05;;;;;;;2.10;1.30;;;;;;;;;;5037082;28;20046;-77
2023/08/08 04:45:31;;;;;;;4.00;1.35;;;;;;;;;;5036731;28;20133;-78
2023/08/08 04:47:58;;;;;;;2.38;1.30;;;;;;;;;;5037363;28;20506;-77
2023/08/08 04:50:26;;;;;;;3.28;1.40;;;;;;;;;;5035593;28;20041;-77
2023/08/08 04:52:52;;;;;;;3.75;1.25;;;;;;;;;;5035622;28;20042;-78
2023/08/08 04:55:19;;;;;;;2.88;1.70;;;;;;;;;;5035690;28;20408;-76
2023/08/08 04:57:46;;;;;;;3.15;1.42;;;;;;;;;;5035378;28;20124;-77
2023/08/08 05:00:14;;;;;;;3.10;1.20;;;;;;;;;;5035346;28;20046;-77
2023/08/08 05:02:41;;;;;;;3.30;1.83;;;;;;;;;;5036242;28;20053;-77
2023/08/08 05:05:09;;;;;;;3.70;1.38;;;;;;;;;;5035851;28;20049;-77
2023/08/08 05:07:37;;;;;;;4.55;1.40;;;;;;;;;;5036039;28;20050;-77
2023/08/08 05:10:05;;;;;;;3.20;1.50;;;;;;;;;;5036481;28;20053;-78
2023/08/08 05:12:31;;;;;;;2.88;1.30;;;;;;;;;;5046121;28;20056;-76
2023/08/08 05:14:58;;;;;;;2.78;1.25;;;;;;;;;;5042620;28;20133;-76
2023/08/08 05:17:24;;;;;;;3.55;1.42;;;;;;;;;;5036639;28;20072;-77
2023/08/08 05:19:51;;;;;;;3.28;1.35;;;;;;;;;;5035887;28;20053;-77
2023/08/08 05:22:18;;;;;;;4.72;1.40;;;;;;;;;;5035843;28;20052;-77
2023/08/08 05:24:45;;;;;;;5.00;1.70;;;;;;;;;;5031575;28;20124;-76
2023/08/08 05:27:12;;;;;;;3.85;1.77;;;;;;;;;;5030430;28;20056;-78
2023/08/08 05:29:40;;;;;;;2.90;1.30;;;;;;;;;;5032330;28;20045;-77
2023/08/08 05:32:08;;;;;;;3.03;1.55;;;;;;;;;;5033471;28;20045;-77
2023/08/08 05:34:34;;;;;;;3.28;1.50;;;;;;;;;;5033772;28;20064;-77
2023/08/08 05:37:01;;;;;;;3.45;1.75;;;;;;;;;;5035437;28;20058;-78
2023/08/08 05:39:28;;;;;;;3.67;1.60;;;;;;;;;;5036431;28;20045;-78
2023/08/08 05:41:58;;;;;;;3.88;2.10;;;;;;;;;;5037650;28;20052;-78
2023/08/08 05:44:25;;;;;;;;;;;;;;;;;;5038127;28;20559;-77
2023/08/08 05:46:51;;;;;;;3.08;1.42;;;;;;;;;;5036926;28;20019;-78
2023/08/08 05:49:18;;;;;;;2.65;1.48;;;;;;;;;;5036812;28;20144;-78
2023/08/08 05:51:45;;;;;;;4.00;1.70;;;;;;;;;;5038457;28;20050;-77
2023/08/08 05:54:12;;;;;;;2.08;1.38;;;;;;;;;;5036453;28;20054;-77
2023/08/08 05:56:39;;;;;;;2.83;1.45;;;;;;;;;;5034572;28;20064;-78
2023/08/08 05:59:07;;;;;;;3.38;1.55;;;;;;;;;;5034821;28;20051;-77
2023/08/08 06:01:34;;;;;;;3.38;1.60;;;;;;;;;;5033690;28;20052;-76
2023/08/08 06:04:01;;;;;;;3.90;1.40;;;;;;;;;;5033939;28;20144;-78
2023/08/08 06:06:28;;;;;;;2.92;1.85;;;;;;;;;;5034811;28;20563;-77
2023/08/08 06:08:54;;;;;;;2.78;1.33;;;;;;;;;;5035111;28;20416;-77
2023/08/08 06:11:21;;;;;;;3.53;1.30;;;;;;;;;;5034954;28;20137;-77
2023/08/08 06:13:48;;;;;;;2.83;1.30;;;;;;;;;;5033728;28;20084;-77
2023/08/08 06:16:18;;;;;;;4.32;1.10;;;;;;;;;;5033936;28;20046;-76
2023/08/08 06:18:45;;;;;;;3.87;1.30;;;;;;;;;;5034095;28;20052;-76
2023/08/08 06:21:11;;;;;;;3.40;1.20;;;;;;;;;;5033606;28;20064;-76
2023/08/08 06:23:38;;;;;;;2.63;0.98;;;;;;;;;;5033559;28;20046;-76
2023/08/08 06:26:04;;;;;;;2.60;1.20;;;;;;;;;;5033321;28;20080;-76
2023/08/08 06:28:31;;;;;;;3.72;1.20;;;;;;;;;;5033715;28;20132;-77
2023/08/08 06:30:58;;;;;;;5.00;1.40;;;;;;;;;;5030703;28;20076;-77
2023/08/08 06:33:29;;;;;;;2.88;1.27;;;;;;;;;;5024634;28;20049;-77
2023/08/08 06:35:56;;;;;;;2.63;1.30;;;;;;;;;;5031045;28;20583;-77
2023/08/08 06:38:22;;;;;;;3.30;1.20;;;;;;;;;;5030025;28;20049;-80
2023/08/08 06:40:49;;;;;;;4.03;1.02;;;;;;;;;;5031347;28;20055;-76
2023/08/08 06:43:16;;;;;;;2.17;1.10;;;;;;;;;;5031501;28;20076;-76
2023/08/08 06:45:42;;;;;;;4.28;1.48;;;;;;;;;;5032341;28;20088;-77
2023/08/08 06:48:10;;;;;;;2.65;1.10;;;;;;;;;;5033190;28;20050;-77
2023/08/08 06:50:38;;;;;;;2.88;1.40;;;;;;;;;;5031618;28;20049;-78
2023/08/08 06:53:05;;;;;;;2.13;1.00;;;;;;;;;;5026409;28;20046;-76
2023/08/08 06:55:32;;;;;;;3.63;0.90;;;;;;;;;;5032680;28;20136;-77
2023/08/08 06:57:58;;;;;;;3.53;1.30;;;;;;;;;;5033435;28;20145;-77
2023/08/08 07:00:26;;;;;;;2.50;1.30;;;;;;;;;;5034160;28;20062;-78
2023/08/08 07:02:53;;;;;;;2.67;1.10;;;;;;;;;;5033083;28;20512;-77
2023/08/08 07:05:20;;;;;;;4.97;1.40;;;;;;;;;;5033114;28;20315;-78
2023/08/08 07:07:48;;;;;;;2.78;1.10;;;;;;;;;;5032711;28;20052;-77
2023/08/08 07:10:15;;;;;;;4.28;2.05;;;;;;;;;;5032839;28;20132;-77
2023/08/08 07:12:42;;;;;;;3.60;1.10;;;;;;;;;;5033580;28;20405;-77
2023/08/08 07:15:09;;;;;;;2.25;1.15;;;;;;;;;;5020927;28;20053;-77
2023/08/08 07:17:36;;;;;;;2.25;1.30;;;;;;;;;;5022686;28;20542;-77
2023/08/08 07:20:06;;;;;;;2.90;1.30;;;;;;;;;;5020551;28;20061;-78
2023/08/08 07:22:33;;;;;;;2.42;1.20;;;;;;;;;;5024440;28;20328;-77
2023/08/08 07:25:01;;;;;;;3.63;1.23;;;;;;;;;;5027608;28;20077;-77
2023/08/08 07:27:28;;;;;;;2.75;1.13;;;;;;;;;;5027559;28;20046;-77
2023/08/08 07:29:54;;;;;;;1.98;1.13;;;;;;;;;;5026704;28;20049;-77
2023/08/08 07:32:21;;;;;;;2.45;1.20;;;;;;;;;;5024429;28;20045;-78
2023/08/08 07:34:47;;;;;;;3.45;1.25;;;;;;;;;;5025295;28;20048;-75
2023/08/08 07:37:15;;;;;;;2.90;1.45;;;;;;;;;;5024517;28;20052;-77
2023/08/08 07:39:42;;;;;;;2.63;1.20;;;;;;;;;;5017317;28;20046;-77
2023/08/08 07:42:10;;;;;;;3.20;1.23;;;;;;;;;;5022401;28;20124;-77
2023/08/08 07:44:38;;;;;;;3.60;1.20;;;;;;;;;;5024891;28;20053;-77
2023/08/08 07:47:05;;;;;;;2.10;1.27;;;;;;;;;;5024535;28;20038;-77
2023/08/08 07:49:32;;;;;;;2.35;1.10;;;;;;;;;;5019164;28;20049;-77
2023/08/08 07:51:58;;;;;;;2.42;1.27;;;;;;;;;;5024156;28;20041;-81
2023/08/08 07:54:32;;;;;;;3.03;1.17;;;;;;;;;;5019299;28;20109;-78
2023/08/08 07:56:58;;;;;;;4.45;1.38;;;;;;;;;;5015939;28;20042;-77
2023/08/08 07:59:26;;;;;;;2.22;1.30;;;;;;;;;;5019477;28;20103;-77
2023/08/08 08:01:53;;;;;;;2.33;1.10;;;;;;;;;;5023217;28;20076;-77
2023/08/08 08:04:20;;;;;;;2.72;1.17;;;;;;;;;;5024971;28;20045;-77
2023/08/08 08:06:47;;;;;;;2.83;1.15;;;;;;;;;;5020245;28;20046;-76
2023/08/08 08:09:13;;;;;;;2.90;1.30;;;;;;;;;;5025211;28;20057;-76
2023/08/08 08:11:40;;;;;;;3.35;1.33;;;;;;;;;;5028147;28;20046;-77
2023/08/08 08:14:07;;;;;;;2.72;1.40;;;;;;;;;;5027900;28;20076;-77
2023/08/08 08:16:35;;;;;;;2.90;1.40;;;;;;;;;;5028273;28;20423;-77
2023/08/08 08:19:01;;;;;;;4.78;1.30;;;;;;;;;;5024247;28;20144;-77
2023/08/08 08:21:28;;;;;;;3.03;1.20;;;;;;;;;;5026716;28;20045;-77
2023/08/08 08:23:55;;;;;;;3.10;1.00;;;;;;;;;;5025018;28;20061;-77
2023/08/08 08:26:21;;;;;;;3.15;1.17;;;;;;;;;;5028279;28;20084;-77
2023/08/08 08:28:48;;;;;;;2.25;1.27;;;;;;;;;;5026632;28;20136;-77
2023/08/08 08:31:14;;;;;;;2.58;1.30;;;;;;;;;;5028570;28;20095;-77
2023/08/08 08:33:43;;;;;;;2.88;1.17;;;;;;;;;;5024937;28;20137;-79
2023/08/08 08:36:09;;;;;;;3.40;0.98;;;;;;;;;;5028369;28;20077;-77
2023/08/08 08:38:36;;;;;;;1.73;1.10;;;;;;;;;;5024567;28;20132;-77
2023/08/08 08:41:03;;;;;;;2.30;0.98;;;;;;;;;;5028087;28;20049;-77
2023/08/08 08:43:31;;;;;;;3.35;1.08;;;;;;;;;;5028539;28;20045;-77
2023/08/08 08:46:03;;;;;;;7.28;1.38;;;;;;;;;;5023803;28;20042;-78
2023/08/08 08:48:29;;;;;;;2.72;1.00;;;;;;;;;;5018380;28;20516;-77
2023/08/08 08:50:59;;;;;;;3.70;1.38;;;;;;;;;;5020241;28;20052;-77
2023/08/08 08:53:26;;;;;;;2.72;1.40;;;;;;;;;;5023959;28;20096;-77
2023/08/08 08:55:53;;;;;;;3.42;1.35;;;;;;;;;;5029066;28;20147;-78
2023/08/08 08:58:21;;;;;;;2.53;1.38;;;;;;;;;;5029951;28;20148;-78
2023/08/08 09:00:49;;;;;;;2.67;1.05;;;;;;;;;;5028745;28;20129;-76
2023/08/08 09:03:16;;;;;;;2.63;1.00;;;;;;;;;;5027680;28;20042;-77
2023/08/08 09:05:44;;;;;;;3.15;1.40;;;;;;;;;;5021828;28;20045;-77
2023/08/08 09:08:13;;;;;;;2.58;1.20;;;;;;;;;;5019729;28;20492;-78
2023/08/08 09:10:40;;;;;;;3.15;1.30;;;;;;;;;;5028886;28;20397;-77
2023/08/08 09:13:10;;;;;;;2.92;1.15;;;;;;;;;;5028397;28;20041;-77
2023/08/08 09:15:37;;;;;;;4.63;1.15;;;;;;;;;;5028495;28;20099;-77
2023/08/08 09:18:03;;;;;;;3.03;1.08;;;;;;;;;;5026345;28;20075;-76
2023/08/08 09:20:31;;;;;;;3.15;0.95;;;;;;;;;;5026677;28;20424;-76
2023/08/08 09:22:58;;;;;;;3.03;1.15;;;;;;;;;;5030548;28;20149;-76
2023/08/08 09:25:27;;;;;;;1.95;1.00;;;;;;;;;;5030041;28;20046;-75
2023/08/08 09:27:54;;;;;;;3.63;1.30;;;;;;;;;;5029677;28;20141;-77
2023/08/08 09:30:21;;;;;;;3.20;1.08;;;;;;;;;;5027468;28;20057;-76
2023/08/08 09:32:48;;;;;;;2.83;1.20;;;;;;;;;;5024800;28;20133;-76
2023/08/08 09:35:15;;;;;;;2.35;1.38;;;;;;;;;;5027813;28;20056;-76
2023/08/08 09:37:42;;;;;;;2.50;1.00;;;;;;;;;;5030695;28;20049;-77
2023/08/08 09:40:11;;;;;;;2.42;1.30;;;;;;;;;;5024972;28;20045;-77
2023/08/08 09:42:41;;;;;;;3.83;1.13;;;;;;;;;;5028291;28;20423;-77
2023/08/08 09:45:10;;;;;;;2.53;1.40;;;;;;;;;;5026943;28;20069;-77
2023/08/08 09:47:38;;;;;;;2.47;0.98;;;;;;;;;;5026056;28;20045;-77
2023/08/08 09:50:06;;;;;;;1.60;0.82;;;;;;;;;;5026926;28;20045;-77
2023/08/08 09:52:34;;;;;;;3.00;1.25;;;;;;;;;;5025264;28;20049;-77
2023/08/08 09:55:01;;;;;;;2.88;1.20;;;;;;;;;;5028008;28;20126;-77
2023/08/08 09:57:28;;;;;;;2.50;1.20;;;;;;;;;;5033997;28;20056;-77
2023/08/08 09:59:56;;;;;;;2.67;1.20;;;;;;;;;;5030162;28;20037;-77
2023/08/08 10:02:23;;;;;;;4.03;1.58;;;;;;;;;;5025898;28;20128;-77
2023/08/08 10:04:52;;;;;;;2.70;1.30;;;;;;;;;;5028877;28;20423;-77
2023/08/08 10:07:20;;;;;;;3.42;1.20;;;;;;;;;;5031128;28;20045;-77
2023/08/08 10:09:48;;;;;;;2.00;1.08;;;;;;;;;;5029438;28;20045;-76
2023/08/08 10:12:14;;;;;;;3.17;1.05;;;;;;;;;;5022101;28;20042;-77
2023/08/08 10:14:43;;;;;;;3.75;1.25;;;;;;;;;;5030873;28;20051;-77
2023/08/08 10:17:14;;;;;;;3.40;1.30;;;;;;;;;;5030621;28;20049;-78
2023/08/08 10:19:41;;;;;;;3.50;1.23;;;;;;;;;;5030693;28;20084;-76
2023/08/08 10:22:09;;;;;;;2.25;1.40;;;;;;;;;;5031064;28;20041;-76
2023/08/08 10:24:36;;;;;;;3.28;1.35;;;;;;;;;;5031364;28;20054;-77
2023/08/08 10:27:07;;;;;;;2.33;1.10;;;;;;;;;;5031459;28;20218;-79
2023/08/08 10:29:34;;;;;;;2.58;1.17;;;;;;;;;;5027082;28;20522;-77
2023/08/08 10:32:03;;;;;;;2.63;1.17;;;;;;;;;;5029302;28;20084;-77
2023/08/08 10:34:40;;;;;;;2.90;1.30;;;;;;;;;;5032932;28;20053;-77
2023/08/08 10:37:11;;;;;;;2.20;1.00;;;;;;;;;;5035675;28;20056;-78
2023/08/08 10:39:37;;;;;;;2.53;1.30;;;;;;;;;;5034271;28;20111;-77
2023/08/08 10:42:05;;;;;;;2.17;1.08;;;;;;;;;;5029329;28;20046;-79
2023/08/08 10:44:32;;;;;;;3.20;1.60;;;;;;;;;;5036565;28;20049;-77
2023/08/08 10:47:00;;;;;;;2.67;1.23;;;;;;;;;;5044563;28;20059;-78
2023/08/08 10:49:27;;;;;;;2.30;1.25;;;;;;;;;;5035393;28;20046;-77
2023/08/08 10:52:02;;;;;;;3.05;1.02;;;;;;;;;;5032482;28;20265;-76
2023/08/08 10:54:33;;;;;;;1.45;0.90;;;;;;;;;;5032748;28;20049;-78
2023/08/08 10:57:00;;;;;;;;;;;;;;;;;;5022715;28;20056;-79
2023/08/08 10:59:39;;;;;;;2.83;1.20;;;;;;;;;;5031505;28;20314;-77
2023/08/08 11:02:06;;;;;;;2.28;1.00;;;;;;;;;;5031836;28;20684;-78
2023/08/08 11:04:34;;;;;;;2.17;1.10;;;;;;;;;;5033236;28;20042;-78
2023/08/08 11:07:02;;;;;;;2.80;1.20;;;;;;;;;;5031714;28;20129;-78
2023/08/08 11:09:30;;;;;;;2.05;1.10;;;;;;;;;;5033414;28;20052;-79
2023/08/08 11:11:56;;;;;;;1.75;0.90;;;;;;;;;;5030711;28;20572;-77
2023/08/08 11:14:23;;;;;;;2.83;1.00;;;;;;;;;;5030326;28;20045;-78
2023/08/08 11:16:54;;;;;;;2.17;1.08;;;;;;;;;;5033235;28;20492;-79
2023/08/08 11:19:22;;;;;;;2.83;0.98;;;;;;;;;;5042079;28;20539;-76
2023/08/08 11:21:49;;;;;;;3.10;1.13;;;;;;;;;;5033538;28;20045;-77
2023/08/08 11:24:17;;;;;;;3.17;1.08;;;;;;;;;;5031368;28;20046;-77
2023/08/08 11:26:47;;;;;;;3.30;1.10;;;;;;;;;;5032537;28;20049;-77
2023/08/08 11:29:13;;;;;;;3.00;0.90;;;;;;;;;;5027038;28;20049;-77
2023/08/08 11:31:42;;;;;;;2.60;1.05;;;;;;;;;;5031319;28;20045;-77
2023/08/08 11:34:10;;;;;;;4.65;1.00;;;;;;;;;;5030156;28;20071;-78
2023/08/08 11:36:37;;;;;;;2.60;1.00;;;;;;;;;;5031790;28;20073;-78
2023/08/08 11:39:07;;;;;;;2.13;1.00;;;;;;;;;;5026711;28;20049;-80
2023/08/08 11:41:36;;;;;;;;;;;;;;;;;;5028472;28;20053;-77
2023/08/08 11:44:03;;;;;;;2.30;1.00;;;;;;;;;;5033466;28;19928;-78
2023/08/08 11:46:31;;;;;;;4.75;1.40;;;;;;;;;;5031527;28;20060;-78
2023/08/08 11:49:03;;;;;;;2.70;1.17;;;;;;;;;;5034149;28;20045;-78
2023/08/08 11:51:29;;;;;;;3.50;1.17;;;;;;;;;;5022603;28;20046;-81
2023/08/08 11:53:56;;;;;;;1.98;1.00;;;;;;;;;;5029855;28;20048;-79
2023/08/08 11:56:23;;;;;;;2.90;1.20;;;;;;;;;;5032155;28;20042;-77
2023/08/08 11:58:52;;;;;;;1.80;0.82;;;;;;;;;;5026682;28;20046;-76
2023/08/08 12:01:20;;;;;;;6.72;1.67;;;;;;;;;;5029301;28;20127;-79
2023/08/08 12:03:48;;;;;;;4.03;1.75;;;;;;;;;;5026017;28;20042;-78
2023/08/08 12:06:15;;;;;;;3.30;1.10;;;;;;;;;;5030051;28;20447;-78
2023/08/08 12:08:43;;;;;;;2.38;0.90;;;;;;;;;;5029353;28;20056;-77
2023/08/08 12:11:11;;;;;;;2.17;1.23;;;;;;;;;;5023280;28;20064;-76
2023/08/08 12:13:39;;;;;;;2.33;1.25;;;;;;;;;;5027728;28;20046;-77
2023/08/08 12:16:09;;;;;;;2.38;1.20;;;;;;;;;;5030041;28;20053;-76
2023/08/08 12:18:37;;;;;;;;;;;;;;;;;;5021718;28;20062;-78
2023/08/08 12:21:04;;;;;;;4.97;1.70;;;;;;;;;;5028278;28;19930;-77
2023/08/08 12:23:33;;;;;;;2.33;0.98;;;;;;;;;;5030753;28;21029;-78
2023/08/08 12:26:00;;;;;;;1.83;0.90;;;;;;;;;;5026191;28;20056;-77
2023/08/08 12:28:29;;;;;;;2.78;1.15;;;;;;;;;;5034548;28;20050;-78
2023/08/08 12:30:56;;;;;;;2.70;1.00;;;;;;;;;;5034219;28;20096;-78
2023/08/08 12:33:24;;;;;;;2.17;1.08;;;;;;;;;;5034362;28;20054;-78
2023/08/08 12:35:50;;;;;;;2.00;0.93;;;;;;;;;;5029825;28;20063;-77
2023/08/08 12:38:17;;;;;;;1.65;0.70;;;;;;;;;;5030107;28;20061;-78
2023/08/08 12:40:44;;;;;;;2.15;1.02;;;;;;;;;;5029620;28;20056;-78
2023/08/08 12:43:13;;;;;;;2.53;1.00;;;;;;;;;;5027712;28;20054;-76
2023/08/08 12:45:40;;;;;;;2.95;1.33;;;;;;;;;;5032281;28;20041;-77
2023/08/08 12:48:07;;;;;;;2.58;0.90;;;;;;;;;;5027732;28;20798;-77
2023/08/08 12:50:35;;;;;;;2.15;0.93;;;;;;;;;;5030712;28;20053;-77
2023/08/08 12:53:03;;;;;;;3.08;1.10;;;;;;;;;;5032751;28;20081;-77
2023/08/08 12:55:30;;;;;;;2.03;1.00;;;;;;;;;;5033333;28;20099;-77
2023/08/08 12:57:57;;;;;;;2.63;1.20;;;;;;;;;;5034965;28;20080;-77
2023/08/08 13:00:24;;;;;;;2.00;1.00;;;;;;;;;;5036092;28;20423;-76
2023/08/08 13:02:50;;;;;;;2.08;0.82;;;;;;;;;;5034266;28;20053;-77
2023/08/08 13:05:17;;;;;;;2.80;1.30;;;;;;;;;;5024299;28;20052;-78
2023/08/08 13:07:45;;;;;;;2.35;1.10;;;;;;;;;;5026754;28;20526;-77
2023/08/08 13:10:11;;;;;;;2.72;1.50;;;;;;;;;;5034496;28;20140;-77
2023/08/08 13:12:38;;;;;;;2.55;1.05;;;;;;;;;;5034784;28;20137;-77
2023/08/08 13:15:05;;;;;;;3.47;1.17;;;;;;;;;;5035633;28;20041;-77
2023/08/08 13:17:34;;;;;;;2.90;1.30;;;;;;;;;;5040558;28;20046;-77
2023/08/08 13:20:00;;;;;;;2.50;1.27;;;;;;;;;;5040514;28;20051;-78
2023/08/08 13:22:27;;;;;;;1.95;1.00;;;;;;;;;;5054405;28;20042;-77
2023/08/08 13:24:55;;;;;;;2.95;1.33;;;;;;;;;;5046422;28;20045;-78
2023/08/08 13:27:21;;;;;;;3.97;1.60;;;;;;;;;;5037765;28;20045;-78
2023/08/08 13:29:48;;;;;;;2.75;1.30;;;;;;;;;;5038079;28;20056;-77
2023/08/08 13:32:20;;;;;;;2.85;1.30;;;;;;;;;;5037215;28;20049;-79
2023/08/08 13:34:47;;;;;;;3.95;2.45;;;;;;;;;;5035311;28;20124;-78
2023/08/08 13:37:13;;;;;;;3.17;1.40;;;;;;;;;;5032837;28;20136;-79
2023/08/08 13:39:40;;;;;;;2.78;1.20;;;;;;;;;;5031052;28;20133;-78
2023/08/08 13:42:09;;;;;;;2.92;0.93;;;;;;;;;;5032084;28;20091;-77
2023/08/08 13:44:35;;;;;;;2.25;1.10;;;;;;;;;;5032412;28;20110;-77
2023/08/08 13:47:02;;;;;;;3.05;1.20;;;;;;;;;;5033618;28;20136;-78
2023/08/08 13:49:29;;;;;;;2.40;1.20;;;;;;;;;;5030498;28;20144;-79
2023/08/08 13:51:58;;;;;;;2.63;1.30;;;;;;;;;;5029342;28;20050;-77
2023/08/08 13:54:24;;;;;;;3.53;1.10;;;;;;;;;;5030965;28;20054;-76
2023/08/08 13:56:51;;;;;;;3.08;1.10;;;;;;;;;;5031153;28;20045;-77
2023/08/08 13:59:19;;;;;;;2.67;1.30;;;;;;;;;;5030858;28;20415;-77
2023/08/08 14:01:45;;;;;;;2.58;1.13;;;;;;;;;;5029250;28;20049;-77
2023/08/08 14:04:12;;;;;;;2.95;1.20;;;;;;;;;;5028879;28;20056;-77
2023/08/08 14:06:39;;;;;;;2.80;1.60;;;;;;;;;;5029786;28;20054;-77
2023/08/08 14:09:07;;;;;;;3.00;1.40;;;;;;;;;;5031237;28;20081;-77
2023/08/08 14:11:33;;;;;;;3.88;1.55;;;;;;;;;;5031179;28;20046;-77
2023/08/08 14:14:00;;;;;;;4.95;2.00;;;;;;;;;;5030828;28;21394;-76
2023/08/08 14:16:35;;;;;;;2.95;1.20;;;;;;;;;;5027719;28;20051;-77
2023/08/08 14:19:02;;;;;;;2.15;1.40;;;;;;;;;;5032597;28;20045;-75
2023/08/08 14:21:28;;;;;;;2.88;1.42;;;;;;;;;;5029519;28;20041;-77
2023/08/08 14:23:55;;;;;;;2.72;1.38;;;;;;;;;;5030221;28;20045;-77
2023/08/08 14:26:21;;;;;;;2.70;1.30;;;;;;;;;;5031139;28;20050;-77
2023/08/08 14:28:48;;;;;;;3.20;1.40;;;;;;;;;;5030285;28;20420;-78
2023/08/08 14:31:16;;;;;;;3.33;1.60;;;;;;;;;;5029757;28;20132;-77
2023/08/08 14:33:44;;;;;;;3.00;1.60;;;;;;;;;;5029823;28;20045;-77
2023/08/08 14:36:10;;;;;;;3.08;1.48;;;;;;;;;;5033312;28;20477;-77
2023/08/08 14:38:37;;;;;;;3.38;1.33;;;;;;;;;;5034071;28;20057;-77
2023/08/08 14:41:04;;;;;;;3.67;1.38;;;;;;;;;;5034931;28;20041;-78
2023/08/08 14:43:31;;;;;;;3.75;1.55;;;;;;;;;;5032463;28;20107;-78